Jamestown, Idaho
Current Conditions -  °F | °C
As of 10:44 PM on Wednesday 17 Dec 2014 (Local Time) from KIDA Reporting Station
Haze Haze  
Wind Chill: 14°   Ceiling: Unl
Heat Index: 14°   Visibility: 2mi
Dew Point: 11°   Wind: 0mph
Humidity: 88%   Direction: NA
Pressure: 30.06"   Gusts: NA
Location:  43.2015°N, 111.522°W
Report Text: KIDA 180544Z 00000KT 2SM R20/3500VP6000FT BR CLR M10/M12 A3006 RMK AO2 VIS 1V4 I1000 T11001117
Loading
Personal Weather Stations






























Interactive Weather Map New forecast layout! Learn more

10-Day Weather Forecast

Advertisements
Track Severe Weather on mobile